• Join FlightAware (Why Join?)
  • Login
  • US Flag 
06:18AM EDT


 

Airport Tracker/Info


-or-


 

Live Flight TrackerFlight Track Log ✈ N123AD ✈ 10-May-2013 ✈ KTRI - KSOP

Flight Track Log - Related Links

Times and Time Zones

All times are in EDT time to prevent confusion due to time zone crossing. See the N123AD flight status page for this flight to view local times or setup timezone preferences in your user account.

Time Position Orientation Groundspeed Altitude Reporting Facility
EDT Latitude Longitude Course Direction KTS MPH feet Rate Location/Type
05:01PM 36.4125 -82.4108 114° Southeast 203 234 5,800  Level Atlanta Center
05:02PM 36.4033 -82.3467 100° East 213 245 8,300 2,100 Climbing Atlanta Center
05:03PM 36.3878 -82.2747 105° East 213 245 10,000 1,980 Climbing Atlanta Center
05:04PM 36.3553 -82.2108 122° Southeast 223 257 12,300 2,460 Climbing Atlanta Center
05:05PM 36.3092 -82.1811 153° Southeast 188 216 15,000 2,280 Climbing Atlanta Center
05:06PM 36.2899 -81.9554 114° Southeast  Level FlightAware Approximate
05:06PM 36.2711 -82.1433 141° Southeast 182 209 16,900  Level Atlanta Center
05:07PM 36.2444 -82.0564 111° Southeast 199 229 17,000  Climbing Atlanta Center
05:08PM 36.2097 -81.9672 116° Southeast 266 306 17,000  Level Atlanta Center
05:09PM 36.1703 -81.8603 115° Southeast 329 379 17,000  Level Atlanta Center
05:10PM 36.1308 -81.7508 114° Southeast 348 400 17,000  Level Atlanta Center
05:11PM 36.0911 -81.6414 114° Southeast 348 400 17,000 300 Level Atlanta Center
05:12PM 36.0536 -81.5347 113° Southeast 348 400 17,700 480 Climbing Atlanta Center
05:13PM 36.0139 -81.4256 114° Southeast 343 395 18,000 1,080 Climbing Atlanta Center
05:14PM 35.9739 -81.3189 115° Southeast 328 377 19,900 1,320 Climbing Atlanta Center
05:15PM 35.9383 -81.2253 115° Southeast 311 358 20,700 540 Climbing Atlanta Center
05:16PM 35.9006 -81.1267 115° Southeast 305 351 21,000 120 Climbing Atlanta Center
05:17PM 35.8628 -81.0231 114° Southeast 321 369 21,000  Level Atlanta Center
05:18PM 35.8225 -80.9142 114° Southeast 338 389 21,000  Level Atlanta Center
05:19PM 35.7867 -80.8208 115° Southeast 338 389 21,000  Level Atlanta Center
05:20PM 35.7461 -80.7125 115° Southeast 338 389 21,000 -540 Level Atlanta Center
05:21PM 35.7036 -80.6069 116° Southeast 338 389 20,000 -1,260 Descending Atlanta Center
05:22PM 35.6650 -80.4958 113° Southeast 338 389 18,500 -1,500 Descending Atlanta Center
05:23PM 35.6222 -80.3881 116° Southeast 343 395 17,100 -1,440 Descending Atlanta Center
05:24PM 35.5769 -80.2725 116° Southeast 348 400 15,700 -1,500 Descending Atlanta Center
05:25PM 35.5364 -80.1750 117° Southeast 338 389 14,100 -1,680 Descending Atlanta Center
05:26PM 35.4919 -80.0878 122° Southeast 308 354 12,400 -1,800 Descending Atlanta Center
05:27PM 35.4494 -79.9981 120° Southeast 303 349 10,500 -1,920 Descending Atlanta Center
05:28PM 35.4153 -79.9156 117° Southeast 303 349 8,600 -1,980 Descending Atlanta Center
05:29PM 35.3772 -79.8333 120° Southeast 296 341 6,600 -1,860 Descending Atlanta Center
05:30PM 35.3389 -79.7539 121° Southeast 283 326 4,900 -1,740 Descending Atlanta Center